Time;durP1;ratioP1;P1;durP2;ratioP2;P2;SDS_P1;SDS_P2;PMS_P1;PMS_P2;Temp;Humidity;BMP_temperature;BMP_pressure;BME280_temperature;BME280_humidity;BME280_pressure;Samples;Min_cycle;Max_cycle;Signal;HPM_P1;HPM_P2
2024/01/25 00:02:18;;;;;;;27.90;5.47;;;;;;;11.82;57.87;102701.78;4872202;28;123838;-82
2024/01/25 00:04:45;;;;;;;36.30;5.80;;;;;;;11.82;57.96;102710.63;4842949;28;124744;-82
2024/01/25 00:07:12;;;;;;;30.13;4.95;;;;;;;11.80;57.93;102709.78;4849027;28;118482;-82
2024/01/25 00:09:40;;;;;;;31.48;5.72;;;;;;;11.80;58.02;102706.25;4873052;28;118998;-82
2024/01/25 00:12:07;;;;;;;27.98;5.30;;;;;;;11.77;58.21;102707.22;4858427;28;124059;-82
2024/01/25 00:14:34;;;;;;;28.10;5.18;;;;;;;11.76;57.88;102702.78;4871535;28;124609;-82
2024/01/25 00:17:02;;;;;;;37.20;4.82;;;;;;;11.74;58.05;102717.00;4870914;28;118303;-82
2024/01/25 00:19:29;;;;;;;28.90;5.10;;;;;;;11.72;57.90;102714.38;4870895;28;118241;-82
2024/01/25 00:21:56;;;;;;;24.75;4.40;;;;;;;11.68;57.94;102715.34;4870346;28;122651;-82
2024/01/25 00:24:26;;;;;;;26.77;4.93;;;;;;;11.65;58.04;102712.75;4850157;28;123587;-82
2024/01/25 00:26:53;;;;;;;24.27;4.72;;;;;;;11.63;57.78;102714.56;4861973;28;118159;-82
2024/01/25 00:29:20;;;;;;;27.70;5.30;;;;;;;11.59;57.85;102712.88;4871420;28;118292;-82
2024/01/25 00:31:48;;;;;;;31.50;4.78;;;;;;;11.56;57.91;102712.91;4872774;28;99098;-82
2024/01/25 00:34:16;;;;;;;26.25;4.82;;;;;;;11.53;57.86;102712.97;4851208;28;122970;-82
2024/01/25 00:36:43;;;;;;;31.45;4.70;;;;;;;11.50;57.82;102709.47;4866879;28;119531;-81
2024/01/25 00:39:11;;;;;;;25.75;5.30;;;;;;;11.46;58.00;102702.47;4872982;28;118932;-82
2024/01/25 00:41:40;;;;;;;29.65;4.65;;;;;;;11.43;57.73;102709.63;4841332;28;123663;-82
2024/01/25 00:44:07;;;;;;;32.60;5.28;;;;;;;11.39;57.74;102718.53;4871239;28;123975;-82
2024/01/25 00:46:35;;;;;;;26.13;4.78;;;;;;;11.35;57.55;102720.38;4856274;28;119087;-82
2024/01/25 00:49:02;;;;;;;28.48;4.65;;;;;;;11.32;57.75;102719.53;4855783;28;119375;-82
2024/01/25 00:51:30;;;;;;;29.83;4.75;;;;;;;11.27;57.63;102724.94;4869423;28;123593;-82
2024/01/25 00:53:57;;;;;;;25.23;4.57;;;;;;;11.22;57.84;102724.16;4870881;28;123986;-82
2024/01/25 00:56:24;;;;;;;25.77;4.72;;;;;;;11.17;57.91;102720.69;4857193;28;117691;-82
2024/01/25 00:58:52;;;;;;;23.13;4.22;;;;;;;11.14;57.78;102723.41;4857115;28;117540;-82
2024/01/25 01:01:22;;;;;;;31.48;5.10;;;;;;;11.10;58.01;102726.09;4870969;28;123354;-82
2024/01/25 01:03:52;;;;;;;25.83;4.82;;;;;;;11.07;57.97;102726.16;4870839;28;122951;-82
2024/01/25 01:06:20;;;;;;;22.85;4.70;;;;;;;11.03;58.15;102726.25;4870232;28;121693;-82
2024/01/25 01:08:48;;;;;;;22.30;4.47;;;;;;;10.99;57.91;102736.00;4855330;28;119447;-82
2024/01/25 01:11:15;;;;;;;32.40;4.70;;;;;;;10.96;58.04;102733.41;4855162;28;124353;-82
2024/01/25 01:13:42;;;;;;;25.60;5.07;;;;;;;10.92;58.08;102731.72;4872435;28;123622;-82
2024/01/25 01:16:10;;;;;;;27.50;4.93;;;;;;;10.89;58.13;102742.38;4870608;28;120007;-82
2024/01/25 01:18:38;;;;;;;25.95;4.88;;;;;;;10.86;58.25;102740.63;4872167;28;118082;-82
2024/01/25 01:21:05;;;;;;;31.02;4.20;;;;;;;10.84;58.07;102738.91;4846864;28;122627;-82
2024/01/25 01:23:33;;;;;;;30.38;4.60;;;;;;;10.82;58.04;102740.72;4873502;28;123468;-81
2024/01/25 01:26:00;;;;;;;26.55;4.53;;;;;;;10.80;58.17;102739.88;4855889;28;116139;-82
2024/01/25 01:28:27;;;;;;;20.42;3.95;;;;;;;10.78;58.23;102744.31;4870641;28;117894;-82
2024/01/25 01:30:54;;;;;;;24.75;5.05;;;;;;;10.76;58.53;102751.44;4852250;28;122026;-81
2024/01/25 01:33:21;;;;;;;28.42;4.38;;;;;;;10.74;58.32;102758.50;4865669;28;123170;-82
2024/01/25 01:35:49;;;;;;;29.73;4.38;;;;;;;10.73;58.34;102762.06;4855422;28;119433;-82
2024/01/25 01:38:16;;;;;;;24.13;4.38;;;;;;;10.70;58.51;102758.56;4845238;28;119964;-80
2024/01/25 01:40:45;;;;;;;24.38;4.90;;;;;;;10.68;58.39;102765.66;4881922;28;123318;-79
2024/01/25 01:43:19;;;;;;;22.95;4.15;;;;;;;10.65;58.48;102771.00;4895212;28;124753;-78
2024/01/25 01:45:47;;;;;;;21.20;3.80;;;;;;;10.65;58.38;102776.28;4879196;28;119895;-79
2024/01/25 01:48:15;;;;;;;30.83;5.05;;;;;;;10.64;58.49;102774.56;4878868;28;118162;-79
2024/01/25 01:50:44;;;;;;;29.08;5.20;;;;;;;10.62;58.37;102776.31;4876165;28;123635;-79
2024/01/25 01:53:12;;;;;;;29.63;4.38;;;;;;;10.60;58.42;102767.53;4895346;28;124496;-78
2024/01/25 01:55:41;;;;;;;26.30;4.72;;;;;;;10.59;58.64;102771.09;4857658;28;118474;-79
2024/01/25 01:58:08;;;;;;;28.85;4.28;;;;;;;10.57;58.53;102778.19;4882060;28;118354;-79
2024/01/25 02:00:37;;;;;;;31.52;4.72;;;;;;;10.56;58.44;102781.72;4887806;28;124831;-79
2024/01/25 02:03:06;;;;;;;27.73;4.32;;;;;;;10.53;58.75;102784.44;4883875;28;125624;-80
2024/01/25 02:05:33;;;;;;;28.67;4.70;;;;;;;10.52;58.52;102790.59;4885642;28;118181;-80
2024/01/25 02:08:00;;;;;;;21.60;3.58;;;;;;;10.51;58.79;102794.16;4873985;28;118544;-80
2024/01/25 02:10:27;;;;;;;26.45;4.28;;;;;;;10.50;58.60;102792.41;4872603;28;123354;-80
2024/01/25 02:12:54;;;;;;;22.20;4.47;;;;;;;10.49;58.50;102795.94;4847999;29;122194;-80
2024/01/25 02:15:22;;;;;;;32.35;4.78;;;;;;;10.47;58.61;102808.31;4849412;28;119127;-80
2024/01/25 02:17:49;;;;;;;21.63;4.35;;;;;;;10.45;58.64;102815.41;4868676;28;117930;-80
2024/01/25 02:20:18;;;;;;;26.20;4.28;;;;;;;10.43;58.62;102814.56;4852641;28;122739;-80
2024/01/25 02:22:45;;;;;;;30.75;4.85;;;;;;;10.42;58.64;102820.78;4875552;28;123695;-80
2024/01/25 02:25:13;;;;;;;26.90;5.13;;;;;;;10.40;58.63;102817.28;4875038;28;119241;-79
2024/01/25 02:27:40;;;;;;;37.45;5.05;;;;;;;10.38;58.86;102808.44;4877929;28;119152;-80
2024/01/25 02:30:08;;;;;;;23.10;4.38;;;;;;;10.36;58.86;102810.25;4860566;28;123199;-80
2024/01/25 02:32:35;;;;;;;26.20;4.47;;;;;;;10.35;58.78;102813.81;4855424;28;124695;-80
2024/01/25 02:35:03;;;;;;;24.80;4.53;;;;;;;10.30;58.69;102796.19;4858909;28;118871;-80
2024/01/25 02:37:30;;;;;;;31.50;5.00;;;;;;;10.28;58.81;102803.25;4867144;28;118412;-80
2024/01/25 02:39:58;;;;;;;30.55;4.68;;;;;;;10.25;58.96;102803.28;4855373;28;123703;-80
2024/01/25 02:42:25;;;;;;;25.25;4.32;;;;;;;10.21;58.70;102801.56;4857314;28;123360;-79
2024/01/25 02:44:52;;;;;;;25.83;4.53;;;;;;;10.19;58.79;102792.78;4874028;28;119005;-80
2024/01/25 02:47:20;;;;;;;28.23;4.45;;;;;;;10.16;59.14;102792.78;4855335;28;117975;-80
2024/01/25 02:49:47;;;;;;;26.92;4.70;;;;;;;10.13;58.79;102792.81;4872012;28;124031;-80
2024/01/25 02:52:14;;;;;;;29.20;4.68;;;;;;;10.11;59.02;102789.31;4856198;28;122518;-80
2024/01/25 02:54:42;;;;;;;34.58;4.50;;;;;;;10.07;58.88;102787.59;4852842;28;119529;-80
2024/01/25 02:57:09;;;;;;;28.65;4.03;;;;;;;10.04;59.01;102792.94;4870715;28;118480;-80
2024/01/25 02:59:36;;;;;;;32.15;4.90;;;;;;;10.01;58.98;102798.28;4856938;28;121882;-80
2024/01/25 03:02:04;;;;;;;24.15;4.55;;;;;;;9.99;59.17;102802.72;4856407;28;122331;-80
2024/01/25 03:04:31;;;;;;;29.58;4.97;;;;;;;9.97;59.04;102799.22;4870597;28;118296;-80
2024/01/25 03:06:59;;;;;;;26.92;4.55;;;;;;;9.94;59.18;102798.34;4855395;28;119098;-80
2024/01/25 03:09:27;;;;;;;30.55;4.68;;;;;;;9.91;59.24;102813.38;4845562;28;123791;-80
2024/01/25 03:11:54;;;;;;;22.15;4.40;;;;;;;9.88;59.10;102819.56;4843662;28;122719;-80
2024/01/25 03:14:21;;;;;;;29.98;4.32;;;;;;;9.86;59.21;102821.34;4871192;28;120902;-80
2024/01/25 03:16:48;;;;;;;21.55;4.15;;;;;;;9.84;59.00;102823.16;4872241;28;120044;-80
2024/01/25 03:19:18;;;;;;;28.88;5.00;;;;;;;9.83;59.12;102821.41;4853825;28;123516;-80
2024/01/25 03:21:45;;;;;;;32.78;4.65;;;;;;;9.80;59.09;102826.72;4871467;28;122158;-81
2024/01/25 03:24:13;;;;;;;29.63;4.68;;;;;;;9.76;59.02;102819.72;4854260;28;118322;-80
2024/01/25 03:26:40;;;;;;;29.83;4.32;;;;;;;9.71;59.07;102817.09;4869152;28;118818;-81
2024/01/25 03:29:08;;;;;;;29.80;4.38;;;;;;;9.69;59.37;102828.59;4870980;28;122324;-81
2024/01/25 03:31:36;;;;;;;26.23;5.10;;;;;;;9.66;59.20;102818.03;4846162;28;123758;-80
2024/01/25 03:34:03;;;;;;;33.15;4.78;;;;;;;9.63;59.26;102818.06;4857923;28;118894;-81
2024/01/25 03:36:31;;;;;;;30.02;5.40;;;;;;;9.60;59.11;102823.38;4854989;28;118196;-81
2024/01/25 03:38:58;;;;;;;23.50;4.63;;;;;;;9.57;59.37;102828.69;4855192;28;124312;-81
2024/01/25 03:41:26;;;;;;;30.40;4.78;;;;;;;9.50;59.44;102826.09;4855069;28;122384;-81
2024/01/25 03:43:54;;;;;;;26.15;4.97;;;;;;;9.49;59.61;102816.44;4852327;28;119607;-81
2024/01/25 03:46:21;;;;;;;25.85;4.93;;;;;;;9.46;59.32;102827.03;4853352;28;118246;-81
2024/01/25 03:48:48;;;;;;;34.53;4.80;;;;;;;9.42;59.52;102830.59;4863199;28;122815;-81
2024/01/25 03:51:16;;;;;;;26.95;4.93;;;;;;;9.39;59.74;102830.59;4872650;28;124310;-81
2024/01/25 03:53:43;;;;;;;33.92;5.25;;;;;;;9.36;59.64;102825.31;4867620;28;118554;-81
2024/01/25 03:56:17;;;;;;;30.27;5.45;;;;;;;9.33;59.70;102820.09;4858417;28;118748;-81
2024/01/25 03:58:44;;;;;;;32.17;4.75;;;;;;;9.31;59.69;102832.44;4854979;28;123202;-81
2024/01/25 04:01:12;;;;;;;28.02;4.78;;;;;;;9.28;59.81;102821.88;4870725;28;123766;-81
2024/01/25 04:03:39;;;;;;;29.17;5.28;;;;;;;9.26;59.84;102818.38;4871645;28;120209;-81
2024/01/25 04:06:06;;;;;;;30.45;5.22;;;;;;;9.24;60.01;102830.72;4837736;28;119277;-81
2024/01/25 04:08:34;;;;;;;28.58;4.85;;;;;;;9.22;59.85;102832.50;4868367;28;123116;-81
2024/01/25 04:11:01;;;;;;;37.38;5.30;;;;;;;9.21;60.21;102830.75;4851733;28;123472;-81
2024/01/25 04:13:28;;;;;;;35.30;4.75;;;;;;;9.21;60.24;102830.75;4864133;28;119065;-81
2024/01/25 04:15:56;;;;;;;35.55;5.07;;;;;;;9.17;60.10;102821.94;4855076;28;117107;-81
2024/01/25 04:18:23;;;;;;;23.42;4.90;;;;;;;9.15;59.90;102816.69;4854684;28;123570;-81
2024/01/25 04:20:50;;;;;;;29.63;4.80;;;;;;;9.13;59.88;102826.38;4871915;28;124017;-81
2024/01/25 04:23:18;;;;;;;31.80;5.20;;;;;;;9.09;60.25;102816.72;4852679;28;119521;-81
2024/01/25 04:25:45;;;;;;;33.22;5.05;;;;;;;9.05;60.08;102817.63;4866584;28;118496;-80
2024/01/25 04:28:12;;;;;;;26.05;4.60;;;;;;;9.03;60.18;102816.78;4869127;28;125372;-81
2024/01/25 04:30:40;;;;;;;30.55;5.07;;;;;;;9.00;60.33;102814.13;4853998;28;123976;-81
2024/01/25 04:33:07;;;;;;;23.60;5.35;;;;;;;8.98;60.30;102818.56;4872589;28;118820;-81
2024/01/25 04:35:34;;;;;;;27.88;5.22;;;;;;;8.96;60.38;102825.63;4872009;28;119222;-81
2024/01/25 04:38:02;;;;;;;35.53;5.93;;;;;;;8.96;60.37;102825.63;4853688;28;123620;-81
2024/01/25 04:40:29;;;;;;;30.10;5.88;;;;;;;8.92;60.47;102823.91;4853346;28;123733;-81
2024/01/25 04:42:56;;;;;;;27.05;5.10;;;;;;;8.90;60.52;102825.66;4860097;28;118957;-80
2024/01/25 04:45:24;;;;;;;33.42;5.35;;;;;;;8.89;60.36;102823.91;4854815;28;119402;-81
2024/01/25 04:47:51;;;;;;;32.42;5.97;;;;;;;8.85;60.32;102828.31;4856486;28;123576;-81
2024/01/25 04:50:18;;;;;;;28.38;5.38;;;;;;;8.82;60.53;102825.72;4867579;28;123783;-81
2024/01/25 04:52:46;;;;;;;33.70;5.28;;;;;;;8.80;60.53;102823.94;4871671;28;120344;-81
2024/01/25 04:55:13;;;;;;;33.13;5.40;;;;;;;8.77;60.61;102820.44;4853917;28;120172;-81
2024/01/25 04:57:40;;;;;;;31.48;5.32;;;;;;;8.74;60.63;102816.97;4864118;28;123684;-81
2024/01/25 05:00:08;;;;;;;34.22;5.30;;;;;;;8.71;60.50;102820.50;4838493;28;123315;-80
2024/01/25 05:02:35;;;;;;;41.30;5.53;;;;;;;8.70;60.52;102813.47;4871155;28;119477;-81
2024/01/25 05:05:03;;;;;;;36.65;6.10;;;;;;;8.68;60.80;102815.25;4871379;28;118908;-81
2024/01/25 05:07:30;;;;;;;37.67;5.38;;;;;;;8.67;60.82;102816.13;4835439;29;123048;-81
2024/01/25 05:09:58;;;;;;;33.95;5.00;;;;;;;8.64;61.03;102813.47;4852077;28;124098;-81
2024/01/25 05:12:25;;;;;;;31.92;5.10;;;;;;;8.65;60.83;102815.25;4873966;28;119018;-81
2024/01/25 05:14:52;;;;;;;34.67;5.55;;;;;;;8.64;60.62;102821.41;4868512;28;119429;-81
2024/01/25 05:17:19;;;;;;;34.95;5.47;;;;;;;8.63;61.13;102826.72;4861017;28;124165;-80
2024/01/25 05:19:46;;;;;;;32.05;5.07;;;;;;;8.62;60.67;102822.31;4869403;28;122807;-81
2024/01/25 05:22:14;;;;;;;39.92;5.00;;;;;;;8.58;60.86;102824.94;4853884;28;118470;-81
2024/01/25 05:24:41;;;;;;;28.45;4.57;;;;;;;8.57;61.08;102817.06;4854642;28;118966;-81
2024/01/25 05:27:09;;;;;;;30.67;4.80;;;;;;;8.56;60.98;102825.84;4857631;28;123631;-81
2024/01/25 05:29:36;;;;;;;32.50;5.25;;;;;;;8.54;60.83;102817.06;4839286;28;123570;-81
2024/01/25 05:32:03;;;;;;;26.33;4.57;;;;;;;8.53;61.07;102825.84;4869690;28;117639;-81
2024/01/25 05:34:30;;;;;;;33.65;5.07;;;;;;;8.52;61.12;102818.84;4853763;28;118019;-81
2024/01/25 05:36:58;;;;;;;37.28;5.05;;;;;;;8.51;61.28;102827.63;4850815;29;123090;-81
2024/01/25 05:39:25;;;;;;;35.38;5.18;;;;;;;8.49;61.22;102834.69;4853527;28;123846;-81
2024/01/25 05:41:52;;;;;;;31.77;5.40;;;;;;;8.48;61.28;102830.31;4847450;28;120071;-81
2024/01/25 05:44:19;;;;;;;23.48;4.47;;;;;;;8.48;61.23;102843.50;4849168;28;119984;-81
2024/01/25 05:46:46;;;;;;;31.58;5.13;;;;;;;8.47;61.18;102841.72;4867326;28;124953;-81
2024/01/25 05:49:13;;;;;;;25.60;5.10;;;;;;;8.47;60.97;102841.72;4867688;28;123539;-81
2024/01/25 05:51:41;;;;;;;36.35;5.43;;;;;;;8.44;61.24;102841.72;4839505;28;118494;-81
2024/01/25 05:54:08;;;;;;;33.70;5.35;;;;;;;8.41;60.98;102841.72;4880734;28;119161;-81
2024/01/25 05:56:38;;;;;;;26.90;4.97;;;;;;;8.39;60.89;102839.97;4857839;28;123487;-81
2024/01/25 05:59:05;;;;;;;33.45;5.00;;;;;;;8.37;61.12;102847.00;4863107;28;122973;-81
2024/01/25 06:01:33;;;;;;;35.80;5.68;;;;;;;8.35;60.85;102846.16;4853265;28;118666;-81
2024/01/25 06:04:00;;;;;;;28.98;4.65;;;;;;;8.33;61.14;102855.84;4854296;28;118942;-81
2024/01/25 06:06:27;;;;;;;27.45;5.07;;;;;;;8.31;61.29;102862.88;4871390;28;123757;-81
2024/01/25 06:08:55;;;;;;;34.33;5.15;;;;;;;8.31;61.34;102862.88;4869668;28;122892;-81
2024/01/25 06:11:37;;;;;;;27.05;4.75;;;;;;;8.28;61.18;102868.16;4852293;28;118367;-80
2024/01/25 06:14:05;;;;;;;30.77;4.93;;;;;;;8.26;61.13;102863.78;4837989;28;118407;-81
2024/01/25 06:16:33;;;;;;;33.88;4.72;;;;;;;8.24;61.24;102866.41;4854772;28;123791;-81
2024/01/25 06:19:01;;;;;;;32.20;5.45;;;;;;;8.23;61.05;102858.50;4862428;28;122839;-80
2024/01/25 06:21:54;;;;;;;;;;;;;;;;;;;;;
2024/01/25 06:24:56;;;;;;;30.77;5.38;;;;;;;8.15;61.35;102853.25;4871575;28;118714;-81
2024/01/25 06:27:23;;;;;;;26.33;4.50;;;;;;;8.12;61.08;102856.78;4867694;28;123699;-81
2024/01/25 06:29:50;;;;;;;33.03;4.97;;;;;;;8.10;61.37;102857.63;4865460;28;122500;-81
2024/01/25 06:32:17;;;;;;;25.20;4.93;;;;;;;8.10;61.42;102868.19;4844735;28;119736;-80
2024/01/25 06:34:53;;;;;;;;;;;;;;;8.08;61.03;102875.25;4846197;28;119296;-81
2024/01/25 06:37:21;;;;;;;24.70;4.93;;;;;;;8.06;61.27;102877.00;4870992;28;126400;-81
2024/01/25 06:39:48;;;;;;;27.17;4.70;;;;;;;8.04;61.14;102873.50;4840387;28;123492;-81
2024/01/25 06:42:16;;;;;;;31.98;5.15;;;;;;;8.01;60.77;102868.25;4874178;28;118589;-81
2024/01/25 06:44:44;;;;;;;24.90;4.72;;;;;;;7.98;61.16;102869.97;4875316;28;118229;-80
2024/01/25 06:47:11;;;;;;;32.72;4.63;;;;;;;7.95;61.19;102875.28;4880672;28;123377;-81
2024/01/25 06:49:38;;;;;;;31.15;5.18;;;;;;;7.94;61.15;102868.22;4896562;28;124640;-80
2024/01/25 06:52:06;;;;;;;35.13;5.50;;;;;;;7.93;61.05;102876.13;4880788;28;120036;-79
2024/01/25 06:54:33;;;;;;;28.35;4.90;;;;;;;7.91;61.09;102873.53;4898685;28;118747;-80
2024/01/25 06:57:00;;;;;;;30.55;5.45;;;;;;;7.88;61.30;102884.06;4899195;28;124494;-79
2024/01/25 06:59:28;;;;;;;15.27;2.92;;;;;;;7.86;61.37;102885.84;4896440;28;123144;-79
2024/01/25 07:01:56;;;;;;;16.67;3.13;;;;;;;7.85;61.34;102884.06;4897042;28;119739;-79
2024/01/25 07:04:23;;;;;;;21.10;3.33;;;;;;;7.85;61.30;102884.06;4890706;28;119488;-80
2024/01/25 07:06:51;;;;;;;21.90;3.45;;;;;;;7.83;61.15;102870.00;4877980;28;123480;-79
2024/01/25 07:09:19;;;;;;;14.82;2.65;;;;;;;7.82;61.01;102884.09;4894323;28;124423;-80
2024/01/25 07:11:46;;;;;;;24.05;2.97;;;;;;;7.81;60.94;102877.03;4874471;28;120207;-79
2024/01/25 07:14:13;;;;;;;17.17;3.58;;;;;;;7.79;61.09;102884.06;4876095;28;118245;-80
2024/01/25 07:16:40;;;;;;;16.23;3.38;;;;;;;7.78;61.00;102882.34;4858834;28;123138;-80
2024/01/25 07:19:08;;;;;;;16.48;2.85;;;;;;;7.78;61.38;102883.22;4867544;28;123356;-80
2024/01/25 07:21:35;;;;;;;23.40;3.63;;;;;;;7.75;61.35;102866.50;4838165;28;119359;-80
2024/01/25 07:24:06;;;;;;;19.73;3.67;;;;;;;7.74;60.97;102867.38;4869657;28;120122;-80
2024/01/25 07:26:33;;;;;;;24.88;3.67;;;;;;;7.75;60.96;102871.78;4856339;28;122905;-80
2024/01/25 07:29:00;;;;;;;21.80;3.88;;;;;;;7.73;60.97;102869.13;4857805;28;123756;-80
2024/01/25 07:31:28;;;;;;;16.02;3.33;;;;;;;7.74;61.51;102870.00;4853763;28;118919;-80
2024/01/25 07:33:55;;;;;;;17.80;3.08;;;;;;;7.74;61.25;102875.28;4837869;29;119621;-80
2024/01/25 07:36:23;;;;;;;21.50;4.32;;;;;;;7.75;61.40;102877.06;4848611;28;122494;-80
2024/01/25 07:38:51;;;;;;;29.90;3.90;;;;;;;7.75;61.17;102877.06;4875502;28;123226;-80
2024/01/25 07:41:19;;;;;;;18.65;3.22;;;;;;;7.76;61.19;102886.72;4858503;28;118385;-80
2024/01/25 07:43:46;;;;;;;28.23;3.80;;;;;;;7.77;61.14;102899.03;4859076;28;118045;-80
2024/01/25 07:46:14;;;;;;;24.70;3.38;;;;;;;7.78;61.20;102903.44;4859816;28;124329;-80
2024/01/25 07:48:42;;;;;;;16.30;3.80;;;;;;;7.79;61.13;102915.72;4857309;28;124054;-80
2024/01/25 07:51:13;;;;;;;21.33;3.60;;;;;;;7.79;61.37;102902.53;4874523;28;119177;-80
2024/01/25 07:53:40;;;;;;;22.75;3.83;;;;;;;7.79;61.06;102902.53;4856976;28;118030;-80
2024/01/25 07:56:09;;;;;;;25.25;3.75;;;;;;;7.79;61.20;102899.91;4873511;28;123754;-80
2024/01/25 07:58:36;;;;;;;25.77;3.67;;;;;;;7.79;61.40;102905.19;4855447;28;122721;-80
2024/01/25 08:01:05;;;;;;;23.52;4.55;;;;;;;7.79;61.34;102911.31;4872326;28;118516;-80
2024/01/25 08:03:33;;;;;;;18.45;3.70;;;;;;;7.80;61.52;102912.22;4851056;28;119056;-80
2024/01/25 08:06:02;;;;;;;25.00;4.05;;;;;;;7.81;61.35;102908.69;4875501;28;124003;-79
2024/01/25 08:08:30;;;;;;;20.58;3.72;;;;;;;7.84;61.39;102905.19;4854929;28;123793;-80
2024/01/25 08:10:58;;;;;;;20.00;3.45;;;;;;;7.86;61.53;102906.94;4868439;28;119580;-80
2024/01/25 08:13:28;;;;;;;29.50;3.92;;;;;;;7.91;61.50;102899.91;4847515;28;118887;-80
2024/01/25 08:16:00;;;;;;;24.92;3.38;;;;;;;7.93;61.77;102898.16;4843214;28;123166;-80
2024/01/25 08:18:29;;;;;;;15.73;3.42;;;;;;;7.94;61.71;102899.88;4874229;28;124491;-80
2024/01/25 08:20:57;;;;;;;17.65;4.07;;;;;;;7.97;61.61;102907.81;4858283;28;119793;-80
2024/01/25 08:23:27;;;;;;;22.67;4.35;;;;;;;7.99;61.39;102908.69;4874842;28;118530;-80
2024/01/25 08:25:54;;;;;;;27.92;4.10;;;;;;;8.01;61.83;102911.34;4873958;28;123215;-79
2024/01/25 08:28:21;;;;;;;21.08;3.60;;;;;;;8.05;61.47;102912.22;4875067;28;124328;-80
2024/01/25 08:30:49;;;;;;;21.75;4.70;;;;;;;8.07;61.82;102903.41;4863568;28;118781;-80
2024/01/25 08:33:16;;;;;;;20.70;4.68;;;;;;;8.10;61.81;102899.88;4856924;28;121008;-80
2024/01/25 08:35:43;;;;;;;22.35;4.15;;;;;;;8.11;61.80;102901.63;4840814;28;123171;-80
2024/01/25 08:38:11;;;;;;;24.52;4.47;;;;;;;8.12;61.83;102898.13;4863302;28;124921;-80
2024/01/25 08:40:38;;;;;;;22.35;4.63;;;;;;;8.14;61.53;102907.78;4880885;28;119285;-79
2024/01/25 08:43:05;;;;;;;11.35;3.50;;;;;;;8.17;61.75;102922.75;4860537;29;118662;-79
2024/01/25 08:45:33;;;;;;;30.13;3.95;;;;;;;8.20;61.74;102930.66;4864184;28;124143;-79
2024/01/25 08:48:00;;;;;;;22.10;3.50;;;;;;;8.22;61.72;102928.03;4863008;28;123829;-80
2024/01/25 08:50:28;;;;;;;18.95;4.35;;;;;;;8.25;61.81;102920.97;4863792;28;117326;-79
2024/01/25 08:52:55;;;;;;;21.98;4.03;;;;;;;8.28;62.07;102910.41;4856305;28;118100;-79
2024/01/25 08:55:23;;;;;;;19.83;4.43;;;;;;;8.31;62.04;102896.34;4870008;28;124241;-80
2024/01/25 08:57:50;;;;;;;23.17;4.55;;;;;;;8.31;61.98;102891.94;4848378;28;123037;-80
2024/01/25 09:00:18;;;;;;;20.30;4.18;;;;;;;8.37;61.95;102905.09;4852096;28;120168;-80
2024/01/25 09:02:46;;;;;;;25.15;4.53;;;;;;;8.44;62.13;102910.38;4870944;28;118746;-80
2024/01/25 09:05:13;;;;;;;20.00;4.50;;;;;;;8.51;61.95;102922.69;4872509;28;124857;-80
2024/01/25 09:07:41;;;;;;;22.67;4.50;;;;;;;8.56;62.07;102931.50;4857647;28;122716;-80
2024/01/25 09:10:09;;;;;;;18.77;4.60;;;;;;;8.61;62.22;102937.66;4855998;28;118992;-80
2024/01/25 09:12:37;;;;;;;22.23;4.32;;;;;;;8.66;62.18;102938.50;4849114;28;118466;-80
2024/01/25 09:15:05;;;;;;;26.65;4.97;;;;;;;8.71;62.13;102923.50;4858135;28;124419;-80
2024/01/25 09:17:32;;;;;;;25.13;5.53;;;;;;;8.75;62.15;102930.53;4855264;28;123921;-80
2024/01/25 09:20:00;;;;;;;23.58;5.28;;;;;;;8.77;62.09;102931.41;4863161;28;117429;-80
2024/01/25 09:22:28;;;;;;;26.80;5.43;;;;;;;8.83;61.96;102934.91;4856882;28;118436;-80
2024/01/25 09:24:55;;;;;;;27.67;5.35;;;;;;;8.87;62.12;102936.66;4872687;28;124004;-80
2024/01/25 09:27:22;;;;;;;27.25;5.25;;;;;;;8.90;62.10;102941.94;4870082;28;123718;-80
2024/01/25 09:29:50;;;;;;;24.15;5.55;;;;;;;8.94;62.09;102938.41;4869859;28;118934;-80
2024/01/25 09:32:20;;;;;;;18.02;5.05;;;;;;;9.01;62.28;102933.97;4870417;28;117162;-80
2024/01/25 09:34:47;;;;;;;22.50;5.15;;;;;;;9.06;62.15;102925.13;4869962;28;123075;-80
2024/01/25 09:37:15;;;;;;;29.38;5.55;;;;;;;9.14;62.04;102925.09;4853888;28;123144;-80
2024/01/25 09:39:42;;;;;;;22.02;5.40;;;;;;;9.20;62.45;102930.34;4871857;28;119938;-80
2024/01/25 09:42:10;;;;;;;26.27;6.18;;;;;;;9.26;62.09;102934.72;4853459;28;119222;-80
2024/01/25 09:44:39;;;;;;;26.25;5.60;;;;;;;9.31;62.22;102930.28;4871524;28;124174;-80
2024/01/25 09:47:07;;;;;;;21.90;5.15;;;;;;;9.38;62.34;102923.16;4851738;28;123208;-80
2024/01/25 09:49:35;;;;;;;28.10;5.20;;;;;;;9.45;62.49;102909.03;4870976;28;119343;-79
2024/01/25 09:52:03;;;;;;;24.88;5.30;;;;;;;9.52;62.25;102900.16;4854747;28;119718;-80
2024/01/25 09:54:35;;;;;;;17.52;5.55;;;;;;;9.59;62.54;102914.19;4869682;28;123368;-80
2024/01/25 09:57:16;;;;;;;26.90;5.10;;;;;;;9.66;62.39;102918.56;4871595;28;123679;-80
2024/01/25 09:59:44;;;;;;;23.10;5.50;;;;;;;9.72;62.06;102913.25;4869400;28;118441;-80
2024/01/25 10:02:12;;;;;;;24.10;5.63;;;;;;;9.78;62.44;102923.78;4869473;28;118319;-80
2024/01/25 10:04:39;;;;;;;18.42;5.45;;;;;;;9.82;62.12;102909.63;4853879;28;123165;-80
2024/01/25 10:07:07;;;;;;;19.60;5.55;;;;;;;9.89;62.43;102908.69;4858733;28;123918;-80
2024/01/25 10:09:41;;;;;;;23.50;5.93;;;;;;;9.96;62.18;102906.84;4869269;28;118130;-80
2024/01/25 10:12:08;;;;;;;16.58;5.03;;;;;;;10.01;62.06;102905.03;4871616;28;119217;-80
2024/01/25 10:14:45;;;;;;;23.38;5.68;;;;;;;10.08;62.26;102905.88;4868786;28;124723;-80
2024/01/25 10:17:12;;;;;;;28.63;5.60;;;;;;;10.11;62.30;102895.22;4869458;28;122826;-80
2024/01/25 10:19:43;;;;;;;24.25;6.43;;;;;;;10.17;62.33;102897.84;4856817;28;119807;-80
2024/01/25 10:22:12;;;;;;;25.60;6.30;;;;;;;10.23;62.36;102892.47;4856049;28;118559;-80
2024/01/25 10:24:42;;;;;;;28.02;6.22;;;;;;;10.27;62.18;102875.66;4869462;28;123696;-80
2024/01/25 10:27:10;;;;;;;26.30;6.50;;;;;;;10.33;62.16;102888.84;4870973;28;123012;-80
2024/01/25 10:29:38;;;;;;;22.67;6.30;;;;;;;10.37;62.23;102897.63;4861249;28;118579;-80
2024/01/25 10:32:06;;;;;;;23.52;5.63;;;;;;;10.41;62.06;102901.13;4833232;28;118329;-80
2024/01/25 10:34:36;;;;;;;27.88;5.93;;;;;;;10.46;61.99;102899.31;4859864;28;123588;-80
2024/01/25 10:37:07;;;;;;;19.40;5.75;;;;;;;10.49;61.92;102901.91;4872901;28;123756;-80
2024/01/25 10:39:35;;;;;;;28.92;6.32;;;;;;;10.50;61.80;102903.69;4862280;28;119151;-80
2024/01/25 10:42:04;;;;;;;24.33;5.80;;;;;;;10.50;62.04;102899.25;4868457;28;118628;-80
2024/01/25 10:44:31;;;;;;;27.98;7.55;;;;;;;10.54;61.91;102905.38;4848678;28;122238;-80
2024/01/25 10:46:59;;;;;;;22.40;5.45;;;;;;;10.57;61.97;102910.66;4871835;28;124917;-80
2024/01/25 10:49:28;;;;;;;28.17;6.45;;;;;;;10.62;62.21;102900.88;4872700;28;119029;-80
2024/01/25 10:51:56;;;;;;;23.70;6.63;;;;;;;10.68;62.02;102887.56;4873433;28;120720;-80
2024/01/25 10:54:24;;;;;;;27.85;6.43;;;;;;;10.73;61.92;102878.66;4868243;28;123879;-80
2024/01/25 10:56:54;;;;;;;23.20;6.68;;;;;;;10.80;61.89;102885.66;4868672;28;124983;-80
2024/01/25 10:59:25;;;;;;;32.20;6.65;;;;;;;10.84;62.17;102877.63;4873608;28;119323;-80
2024/01/25 11:01:54;;;;;;;23.13;6.18;;;;;;;10.89;62.08;102874.94;4870655;28;118066;-80
2024/01/25 11:04:24;;;;;;;22.45;5.90;;;;;;;10.94;62.06;102875.72;4861125;28;123031;-80
2024/01/25 11:06:52;;;;;;;23.58;6.70;;;;;;;10.97;62.06;102873.03;4856756;28;123155;-80
2024/01/25 11:09:21;;;;;;;22.63;6.32;;;;;;;11.03;62.02;102867.63;4856623;28;119442;-80
2024/01/25 11:11:49;;;;;;;24.05;6.63;;;;;;;11.08;61.83;102865.81;4854474;28;118692;-80
2024/01/25 11:14:19;;;;;;;21.33;6.18;;;;;;;11.13;61.77;102856.91;4867289;28;124531;-81
2024/01/25 11:16:47;;;;;;;22.92;5.93;;;;;;;11.17;61.92;102848.00;4873392;28;123755;-81
2024/01/25 11:19:19;;;;;;;30.58;6.75;;;;;;;11.21;61.87;102855.91;4855970;28;119295;-80
2024/01/25 11:21:48;;;;;;;28.65;6.50;;;;;;;11.29;61.69;102847.81;4867965;28;119460;-80